createdAt,value
2022-10-03T00:02:30.113Z,101585.50
2022-10-03T00:05:23.942Z,101586.34
2022-10-03T00:08:16.234Z,101578.50
2022-10-03T00:11:02.924Z,101588.97
2022-10-03T00:13:43.129Z,101576.75
2022-10-03T00:16:19.984Z,101579.38
2022-10-03T00:19:00.281Z,101579.44
2022-10-03T00:21:47.751Z,101587.34
2022-10-03T00:24:30.353Z,101588.28
2022-10-03T00:27:09.692Z,101585.72
2022-10-03T00:30:03.413Z,101592.75
2022-10-03T00:32:46.700Z,101598.03
2022-10-03T00:35:32.339Z,101594.59
2022-10-03T00:38:18.789Z,101593.78
2022-10-03T00:41:16.491Z,101596.41
2022-10-03T00:44:31.677Z,101605.16
2022-10-03T00:47:50.840Z,101607.84
2022-10-03T00:50:46.968Z,101608.75
2022-10-03T00:53:41.931Z,101604.41
2022-10-03T00:56:36.653Z,101600.94
2022-10-03T00:59:33.156Z,101606.19
2022-10-03T01:02:39.544Z,101610.59
2022-10-03T01:05:21.927Z,101612.38
2022-10-03T01:08:38.499Z,101615.88
2022-10-03T01:11:25.660Z,101622.00
2022-10-03T01:14:12.941Z,101617.66
2022-10-03T01:16:56.188Z,101622.88
2022-10-03T01:20:01.355Z,101627.22
2022-10-03T01:23:29.418Z,101630.75
2022-10-03T01:26:15.880Z,101629.91
2022-10-03T01:29:10.399Z,101629.06
2022-10-03T01:31:48.107Z,101633.47
2022-10-03T01:34:26.967Z,101631.72
2022-10-03T01:37:08.592Z,101634.41
2022-10-03T01:39:47.982Z,101630.06
2022-10-03T01:42:31.517Z,101638.81
2022-10-03T01:45:16.414Z,101644.06
2022-10-03T01:47:51.593Z,101650.19
2022-10-03T01:50:32.082Z,101656.31
2022-10-03T01:53:08.853Z,101656.31
2022-10-03T01:55:50.814Z,101651.09
2022-10-03T01:58:31.251Z,101656.31
2022-10-03T02:01:11.535Z,101656.31
2022-10-03T02:03:50.293Z,101663.31
2022-10-03T02:06:32.434Z,101654.59
2022-10-03T02:09:11.885Z,101662.41
2022-10-03T02:11:58.297Z,101664.16
2022-10-03T02:14:36.819Z,101665.03
2022-10-03T02:17:19.985Z,101666.75
2022-10-03T02:19:58.637Z,101658.03
2022-10-03T02:22:36.031Z,101659.75
2022-10-03T02:25:40.000Z,101654.50
2022-10-03T02:28:45.138Z,101650.13
2022-10-03T02:32:10.212Z,101648.41
2022-10-03T02:35:22.198Z,101642.31
2022-10-03T02:38:26.471Z,101647.59
2022-10-03T02:41:28.289Z,101642.38
2022-10-03T02:44:58.319Z,101654.59
2022-10-03T02:48:31.152Z,101651.13
2022-10-03T02:51:56.628Z,101657.28
2022-10-03T02:55:13.831Z,101661.66
2022-10-03T02:58:21.886Z,101655.53
2022-10-03T03:01:33.507Z,101659.88
2022-10-03T03:04:45.114Z,101669.50
2022-10-03T03:08:10.106Z,101665.13
2022-10-03T03:11:18.602Z,101675.59
2022-10-03T03:14:51.430Z,101681.66
2022-10-03T03:17:34.148Z,101692.16
2022-10-03T03:20:42.119Z,101690.41
2022-10-03T03:23:46.856Z,101685.13
2022-10-03T03:26:36.452Z,101687.75
2022-10-03T03:29:19.634Z,101694.72
2022-10-03T03:32:00.418Z,101692.97
2022-10-03T03:34:38.680Z,101695.59
2022-10-03T03:37:17.189Z,101703.44
2022-10-03T03:40:07.982Z,101700.81
2022-10-03T03:43:00.849Z,101695.59
2022-10-03T03:45:54.457Z,101699.06
2022-10-03T03:48:53.244Z,101698.19
2022-10-03T03:51:35.027Z,101700.81
2022-10-03T03:54:52.443Z,101699.94
2022-10-03T03:58:13.114Z,101712.13
2022-10-03T04:01:18.020Z,101713.84
2022-10-03T04:04:00.543Z,101710.34
2022-10-03T04:06:46.277Z,101706.88
2022-10-03T04:09:55.184Z,101706.88
2022-10-03T04:12:38.496Z,101708.59
2022-10-03T04:15:37.335Z,101713.81
2022-10-03T04:18:58.940Z,101719.03
2022-10-03T04:21:52.212Z,101722.53
2022-10-03T04:24:50.447Z,101719.88
2022-10-03T04:27:42.146Z,101726.84
2022-10-03T04:30:16.632Z,101724.25
2022-10-03T04:33:09.475Z,101731.22
2022-10-03T04:36:12.749Z,101733.84
2022-10-03T04:38:55.148Z,101746.00
2022-10-03T04:41:33.077Z,101742.50
2022-10-03T04:44:12.959Z,101741.59
2022-10-03T04:46:51.768Z,101738.97
2022-10-03T04:49:32.378Z,101732.00
2022-10-03T04:52:13.521Z,101742.44
2022-10-03T04:54:55.992Z,101740.66
2022-10-03T04:57:36.367Z,101741.50
2022-10-03T05:00:23.561Z,101734.53
2022-10-03T05:03:03.786Z,101738.00
2022-10-03T05:05:55.092Z,101735.38
2022-10-03T05:08:45.669Z,101741.44
2022-10-03T05:11:29.757Z,101732.75
2022-10-03T05:14:11.528Z,101741.44
2022-10-03T05:16:46.411Z,101745.75
2022-10-03T05:19:51.503Z,101750.03
2022-10-03T05:22:42.612Z,101755.22
2022-10-03T05:25:35.585Z,101759.50
2022-10-03T05:28:18.860Z,101758.63
2022-10-03T05:30:54.749Z,101763.81
2022-10-03T05:33:41.967Z,101755.97
2022-10-03T05:36:28.878Z,101763.84
2022-10-03T05:39:28.069Z,101767.31
2022-10-03T05:42:22.563Z,101769.06
2022-10-03T05:45:03.063Z,101772.56
2022-10-03T05:47:49.046Z,101766.47
2022-10-03T05:51:11.847Z,101771.72
2022-10-03T05:54:37.244Z,101776.94
2022-10-03T05:58:00.057Z,101778.72
2022-10-03T06:00:40.764Z,101785.75
2022-10-03T06:04:06.378Z,101786.63
2022-10-03T06:06:49.647Z,101792.78
2022-10-03T06:09:58.015Z,101798.88
2022-10-03T06:12:35.611Z,101798.06
2022-10-03T06:15:54.739Z,101797.19
2022-10-03T06:19:16.744Z,101801.59
2022-10-03T06:22:35.015Z,101815.56
2022-10-03T06:26:00.456Z,101812.97
2022-10-03T06:28:58.634Z,101812.19
2022-10-03T06:32:37.405Z,101814.00
2022-10-03T06:35:57.885Z,101805.34
2022-10-03T06:39:46.687Z,101817.69
2022-10-03T06:42:56.720Z,101812.50
2022-10-03T06:46:16.413Z,101809.91
2022-10-03T06:49:31.123Z,101808.16
2022-10-03T06:52:33.240Z,101812.50
2022-10-03T06:55:48.128Z,101808.97
2022-10-03T06:59:21.408Z,101813.19
2022-10-03T07:02:16.075Z,101806.09
2022-10-03T07:05:40.689Z,101804.97
2022-10-03T07:09:01.755Z,101805.56
2022-10-03T07:11:59.255Z,101802.63
2022-10-03T07:15:38.076Z,101800.56
2022-10-03T07:18:58.004Z,101801.06
2022-10-03T07:22:20.330Z,101794.41
2022-10-03T07:25:29.815Z,101797.38
2022-10-03T07:28:39.755Z,101802.97
2022-10-03T07:31:21.506Z,101807.69
2022-10-03T07:34:59.287Z,101810.31
2022-10-03T07:38:09.556Z,101811.34
2022-10-03T07:41:22.371Z,101825.22
2022-10-03T07:44:18.679Z,101826.91
2022-10-03T07:47:40.081Z,101823.94
2022-10-03T07:50:58.887Z,101831.75
2022-10-03T07:54:17.575Z,101836.09
2022-10-03T07:57:09.699Z,101833.59
2022-10-03T08:00:18.449Z,101838.41
2022-10-03T08:03:57.957Z,101839.41
2022-10-03T08:06:38.735Z,101838.41
2022-10-03T08:09:50.996Z,101824.72
2022-10-03T08:12:52.016Z,101827.22
2022-10-03T08:15:31.595Z,101827.28
2022-10-03T08:18:36.984Z,101828.88
2022-10-03T08:21:12.252Z,101831.59
2022-10-03T08:24:30.738Z,101832.94
2022-10-03T08:27:27.689Z,101833.94
2022-10-03T08:30:20.597Z,101831.84
2022-10-03T08:33:21.623Z,101833.44
2022-10-03T08:36:27.744Z,101826.59
2022-10-03T08:39:23.705Z,101822.16
2022-10-03T08:42:42.432Z,101826.50
2022-10-03T08:45:39.435Z,101823.69
2022-10-03T08:48:56.038Z,101827.50
2022-10-03T08:52:08.023Z,101825.06
2022-10-03T08:55:04.643Z,101818.56
2022-10-03T08:58:20.794Z,101818.75
2022-10-03T09:01:12.893Z,101826.13
2022-10-03T09:04:37.344Z,101823.59
2022-10-03T09:07:37.913Z,101817.31
2022-10-03T09:10:59.155Z,101821.88
2022-10-03T09:14:17.652Z,101818.13
2022-10-03T09:17:00.354Z,101814.97
2022-10-03T09:20:16.872Z,101827.03
2022-10-03T09:23:41.084Z,101828.31
2022-10-03T09:27:05.633Z,101832.00
2022-10-03T09:30:13.221Z,101829.19
2022-10-03T09:33:45.075Z,101832.84
2022-10-03T09:36:35.711Z,101831.81
2022-10-03T09:39:37.196Z,101837.56
2022-10-03T09:42:45.048Z,101839.72
2022-10-03T09:45:43.675Z,101836.34
2022-10-03T09:48:45.008Z,101838.19
2022-10-03T09:51:44.986Z,101841.50
2022-10-03T09:54:47.653Z,101836.16
2022-10-03T09:57:57.589Z,101838.31
2022-10-03T10:00:36.080Z,101832.91
2022-10-03T10:03:54.043Z,101839.00
2022-10-03T10:06:59.120Z,101828.22
2022-10-03T10:10:04.564Z,101830.63
2022-10-03T10:13:14.104Z,101835.34
2022-10-03T10:16:35.671Z,101834.94
2022-10-03T10:19:36.979Z,101833.50
2022-10-03T10:23:00.360Z,101832.84
2022-10-03T10:26:12.480Z,101823.72
2022-10-03T10:29:41.407Z,101822.75
2022-10-03T10:33:08.397Z,101823.44
2022-10-03T10:36:44.801Z,101820.31
2022-10-03T10:40:00.143Z,101827.69
2022-10-03T10:43:15.729Z,101817.06
2022-10-03T10:46:29.131Z,101828.28
2022-10-03T10:49:47.190Z,101819.50
2022-10-03T10:53:01.921Z,101825.28
2022-10-03T10:56:29.584Z,101823.44
2022-10-03T10:59:53.844Z,101820.91
2022-10-03T11:03:26.207Z,101824.03
2022-10-03T11:06:47.237Z,101831.31
2022-10-03T11:09:53.801Z,101825.09
2022-10-03T11:13:35.598Z,101827.47
2022-10-03T11:17:15.843Z,101823.53
2022-10-03T11:20:41.458Z,101823.53
2022-10-03T11:24:15.233Z,101817.09
2022-10-03T11:27:33.059Z,101812.41
2022-10-03T11:31:12.084Z,101811.56
2022-10-03T11:34:27.035Z,101805.88
2022-10-03T11:37:43.152Z,101803.84
2022-10-03T11:40:36.769Z,101806.88
2022-10-03T11:43:45.434Z,101798.47
2022-10-03T11:46:31.079Z,101804.84
2022-10-03T11:49:06.180Z,101797.78
2022-10-03T11:51:49.195Z,101797.22
2022-10-03T11:54:32.561Z,101802.44
2022-10-03T11:57:09.441Z,101801.69
2022-10-03T12:00:00.579Z,101805.16
2022-10-03T12:03:13.664Z,101807.06
2022-10-03T12:06:14.412Z,101797.38
2022-10-03T12:08:57.069Z,101802.69
2022-10-03T12:11:33.979Z,101791.31
2022-10-03T12:14:24.361Z,101805.50
2022-10-03T12:17:09.697Z,101791.31
2022-10-03T12:19:55.389Z,101795.66
2022-10-03T12:22:46.331Z,101797.94
2022-10-03T12:25:34.826Z,101789.00
2022-10-03T12:28:14.813Z,101780.06
2022-10-03T12:30:52.462Z,101781.75
2022-10-03T12:33:45.526Z,101775.78
2022-10-03T12:36:19.156Z,101767.06
2022-10-03T12:39:03.297Z,101776.97
2022-10-03T12:41:58.755Z,101774.59
2022-10-03T12:44:47.305Z,101769.44
2022-10-03T12:47:54.824Z,101766.84
2022-10-03T12:50:40.515Z,101760.72
2022-10-03T12:53:32.493Z,101754.22
2022-10-03T12:56:08.303Z,101757.91
2022-10-03T12:59:15.396Z,101749.59
2022-10-03T13:02:21.616Z,101754.34
2022-10-03T13:05:22.966Z,101749.22
2022-10-03T13:07:56.758Z,101739.25
2022-10-03T13:10:37.312Z,101747.66
2022-10-03T13:13:24.063Z,101740.88
2022-10-03T13:16:24.673Z,101739.50
2022-10-03T13:19:06.455Z,101741.00
2022-10-03T13:22:03.437Z,101740.47
2022-10-03T13:24:40.689Z,101739.25
2022-10-03T13:27:32.209Z,101736.00
2022-10-03T13:30:09.703Z,101733.41
2022-10-03T13:32:42.473Z,101739.31
2022-10-03T13:35:58.541Z,101731.56
2022-10-03T13:38:58.711Z,101729.81
2022-10-03T13:41:35.205Z,101736.44
2022-10-03T13:44:09.947Z,101740.13
2022-10-03T13:46:45.325Z,101732.69
2022-10-03T13:49:23.012Z,101730.63
2022-10-03T13:52:02.798Z,101734.31
2022-10-03T13:55:07.036Z,101719.38
2022-10-03T13:57:43.243Z,101728.00
2022-10-03T14:00:15.688Z,101724.88
2022-10-03T14:03:19.041Z,101732.19
2022-10-03T14:06:14.403Z,101730.47
2022-10-03T14:09:18.283Z,101731.50
2022-10-03T14:11:56.129Z,101732.09
2022-10-03T14:15:13.115Z,101718.00
2022-10-03T14:17:51.417Z,101721.25
2022-10-03T14:20:29.552Z,101721.44
2022-10-03T14:23:25.965Z,101714.75
2022-10-03T14:26:04.881Z,101717.66
2022-10-03T14:28:41.931Z,101718.41
2022-10-03T14:31:18.411Z,101717.97
2022-10-03T14:33:54.210Z,101715.88
2022-10-03T14:36:38.092Z,101714.91
2022-10-03T14:39:25.903Z,101717.34
2022-10-03T14:42:39.350Z,101724.19
2022-10-03T14:45:12.239Z,101714.69
2022-10-03T14:47:43.842Z,101719.88
2022-10-03T14:50:20.033Z,101712.78
2022-10-03T14:52:54.463Z,101714.78
2022-10-03T14:55:30.335Z,101708.97
2022-10-03T14:58:10.652Z,101704.19
2022-10-03T15:00:45.232Z,101709.56
2022-10-03T15:03:33.590Z,101705.16
2022-10-03T15:06:33.934Z,101710.34
2022-10-03T15:09:06.503Z,101703.56
2022-10-03T15:11:37.980Z,101706.88
2022-10-03T15:14:11.209Z,101696.75
2022-10-03T15:16:46.096Z,101702.00
2022-10-03T15:19:19.836Z,101698.44
2022-10-03T15:21:53.037Z,101696.03
2022-10-03T15:24:26.555Z,101705.94
2022-10-03T15:27:02.572Z,101696.00
2022-10-03T15:29:34.481Z,101698.03
2022-10-03T15:32:06.532Z,101693.66
2022-10-03T15:34:41.673Z,101694.97
2022-10-03T15:37:22.904Z,101699.88
2022-10-03T15:39:53.366Z,101694.28
2022-10-03T15:42:25.471Z,101688.03
2022-10-03T15:45:00.162Z,101695.81
2022-10-03T15:47:30.100Z,101700.03
2022-10-03T15:50:04.497Z,101692.25
2022-10-03T15:52:41.424Z,101689.59
2022-10-03T15:55:20.285Z,101690.84
2022-10-03T15:57:52.931Z,101703.44
2022-10-03T16:00:27.614Z,101702.63
2022-10-03T16:03:08.624Z,101700.03
2022-10-03T16:05:44.080Z,101705.16
2022-10-03T16:08:21.719Z,101705.97
2022-10-03T16:11:03.188Z,101702.16
2022-10-03T16:13:37.897Z,101694.72
2022-10-03T16:16:14.859Z,101688.91
2022-10-03T16:18:56.859Z,101692.16
2022-10-03T16:21:45.848Z,101700.56
2022-10-03T16:24:32.761Z,101687.88
2022-10-03T16:27:16.764Z,101685.75
2022-10-03T16:29:54.034Z,101676.53
2022-10-03T16:32:28.260Z,101683.19
2022-10-03T16:35:02.596Z,101679.13
2022-10-03T16:37:32.600Z,101678.53
2022-10-03T16:40:03.770Z,101677.97
2022-10-03T16:42:43.967Z,101678.38
2022-10-03T16:45:26.330Z,101685.81
2022-10-03T16:48:17.572Z,101683.63
2022-10-03T16:50:52.378Z,101687.56
2022-10-03T16:53:22.670Z,101689.78
2022-10-03T16:55:59.876Z,101694.56
2022-10-03T16:58:33.253Z,101694.84
2022-10-03T17:01:25.791Z,101693.50
2022-10-03T17:04:00.864Z,101692.16
2022-10-03T17:06:35.071Z,101692.50
2022-10-03T17:09:08.647Z,101683.16
2022-10-03T17:11:40.216Z,101686.09
2022-10-03T17:14:10.476Z,101677.59
2022-10-03T17:16:47.269Z,101680.47
2022-10-03T17:19:29.286Z,101671.03
2022-10-03T17:22:06.605Z,101674.84
2022-10-03T17:24:46.598Z,101668.94
2022-10-03T17:27:29.432Z,101668.19
2022-10-03T17:30:03.398Z,101675.41
2022-10-03T17:32:38.165Z,101665.06
2022-10-03T17:35:14.339Z,101667.84
2022-10-03T17:38:37.052Z,101662.78
2022-10-03T17:41:19.246Z,101669.13
2022-10-03T17:44:00.509Z,101681.56
2022-10-03T17:46:40.941Z,101674.72
2022-10-03T17:49:23.336Z,101671.28
2022-10-03T17:51:55.966Z,101669.63
2022-10-03T17:54:30.242Z,101667.97
2022-10-03T17:57:06.113Z,101669.84
2022-10-03T17:59:44.306Z,101660.28
2022-10-03T18:02:21.618Z,101663.97
2022-10-03T18:05:01.392Z,101657.94
2022-10-03T18:07:31.893Z,101661.56
2022-10-03T18:10:00.200Z,101656.41
2022-10-03T18:12:35.157Z,101658.25
2022-10-03T18:15:42.333Z,101654.91
2022-10-03T18:19:00.041Z,101657.69
2022-10-03T18:21:44.477Z,101655.19
2022-10-03T18:24:52.219Z,101655.31
2022-10-03T18:28:12.487Z,101662.44
2022-10-03T18:30:51.800Z,101653.72
2022-10-03T18:33:24.772Z,101655.56
2022-10-03T18:35:54.081Z,101657.44
2022-10-03T18:38:24.681Z,101655.81
2022-10-03T18:40:58.791Z,101658.56
2022-10-03T18:43:35.450Z,101656.03
2022-10-03T18:46:14.894Z,101651.75
2022-10-03T18:49:28.337Z,101660.63
2022-10-03T18:51:51.325Z,101662.47
2022-10-03T18:54:34.969Z,101659.97
2022-10-03T18:57:12.264Z,101663.47
2022-10-03T18:59:52.765Z,101651.25
2022-10-03T19:02:29.984Z,101654.81
2022-10-03T19:05:08.925Z,101656.69
2022-10-03T19:07:47.173Z,101658.50
2022-10-03T19:10:38.760Z,101649.81
2022-10-03T19:13:20.971Z,101655.19
2022-10-03T19:16:11.641Z,101655.28
2022-10-03T19:18:45.151Z,101658.91
2022-10-03T19:21:20.074Z,101650.25
2022-10-03T19:23:53.066Z,101658.28
2022-10-03T19:26:31.247Z,101657.50
2022-10-03T19:29:07.399Z,101654.16
2022-10-03T19:31:41.414Z,101662.97
2022-10-03T19:34:21.277Z,101663.91
2022-10-03T19:36:51.737Z,101663.09
2022-10-03T19:39:22.376Z,101662.25
2022-10-03T19:41:56.964Z,101655.31
2022-10-03T19:44:28.804Z,101653.59
2022-10-03T19:47:07.084Z,101644.03
2022-10-03T19:49:49.373Z,101651.09
2022-10-03T19:52:25.079Z,101651.16
2022-10-03T19:55:02.748Z,101651.19
2022-10-03T19:57:42.840Z,101644.25
2022-10-03T20:00:27.602Z,101638.19
2022-10-03T20:03:05.785Z,101647.00
2022-10-03T20:05:40.721Z,101642.69
2022-10-03T20:08:29.731Z,101638.34
2022-10-03T20:11:16.382Z,101643.69
2022-10-03T20:13:47.213Z,101636.75
2022-10-03T20:16:21.553Z,101642.03
2022-10-03T20:18:53.153Z,101648.16
2022-10-03T20:21:26.256Z,101646.47
2022-10-03T20:23:55.554Z,101650.91
2022-10-03T20:26:34.279Z,101645.66
2022-10-03T20:29:23.148Z,101657.97
2022-10-03T20:31:58.928Z,101654.47
2022-10-03T20:34:27.683Z,101637.03
2022-10-03T20:37:10.754Z,101630.91
2022-10-03T20:39:44.632Z,101632.66
2022-10-03T20:42:19.345Z,101632.72
2022-10-03T20:44:59.099Z,101629.31
2022-10-03T20:47:52.311Z,101629.31
2022-10-03T20:50:27.868Z,101629.34
2022-10-03T20:53:00.669Z,101627.63
2022-10-03T20:55:33.232Z,101626.75
2022-10-03T20:58:16.417Z,101624.16
2022-10-03T21:00:49.701Z,101628.59
2022-10-03T21:03:31.644Z,101626.03
2022-10-03T21:06:02.774Z,101631.31
2022-10-03T21:08:37.928Z,101626.13
2022-10-03T21:11:21.539Z,101634.84
2022-10-03T21:13:56.264Z,101629.63
2022-10-03T21:16:26.283Z,101623.53
2022-10-03T21:19:01.547Z,101625.31
2022-10-03T21:21:38.425Z,101620.09
2022-10-03T21:24:18.143Z,101620.97
2022-10-03T21:26:49.538Z,101609.66
2022-10-03T21:29:28.594Z,101622.78
2022-10-03T21:32:16.922Z,101619.28
2022-10-03T21:34:55.576Z,101610.56
2022-10-03T21:37:34.405Z,101616.69
2022-10-03T21:40:19.028Z,101614.97
2022-10-03T21:43:04.332Z,101610.59
2022-10-03T21:45:44.780Z,101602.78
2022-10-03T21:48:28.787Z,101598.44
2022-10-03T21:51:01.611Z,101592.34
2022-10-03T21:53:45.411Z,101594.97
2022-10-03T21:56:44.033Z,101604.59
2022-10-03T21:59:40.938Z,101614.22
2022-10-03T22:02:18.386Z,101608.13
2022-10-03T22:04:55.068Z,101609.88
2022-10-03T22:07:38.783Z,101595.91
2022-10-03T22:10:21.456Z,101596.78
2022-10-03T22:12:53.348Z,101600.28
2022-10-03T22:15:32.550Z,101600.31
2022-10-03T22:18:04.660Z,101609.06
2022-10-03T22:20:35.520Z,101599.44
2022-10-03T22:23:26.697Z,101590.75
2022-10-03T22:26:20.501Z,101572.41
2022-10-03T22:29:00.677Z,101579.38
2022-10-03T22:31:38.071Z,101579.41
2022-10-03T22:34:28.572Z,101572.44
2022-10-03T22:36:58.868Z,101574.19
2022-10-03T22:39:30.641Z,101575.94
2022-10-03T22:42:02.041Z,101569.81
2022-10-03T22:44:35.251Z,101565.50
2022-10-03T22:47:10.701Z,101565.50
2022-10-03T22:49:42.872Z,101568.13
2022-10-03T22:52:18.312Z,101569.03
2022-10-03T22:54:51.012Z,101562.03
2022-10-03T22:57:20.223Z,101556.78
2022-10-03T22:59:52.761Z,101556.78
2022-10-03T23:02:29.220Z,101555.94
2022-10-03T23:05:03.491Z,101550.69
2022-10-03T23:08:03.151Z,101541.13
2022-10-03T23:10:51.656Z,101537.66
2022-10-03T23:13:38.312Z,101537.66
2022-10-03T23:16:21.207Z,101534.19
2022-10-03T23:19:08.886Z,101533.31
2022-10-03T23:21:46.615Z,101527.22
2022-10-03T23:24:26.421Z,101530.69
2022-10-03T23:27:46.038Z,101526.38
2022-10-03T23:30:50.678Z,101525.50
2022-10-03T23:33:39.344Z,101527.25
2022-10-03T23:36:17.700Z,101522.06
2022-10-03T23:38:59.723Z,101509.88
2022-10-03T23:41:45.133Z,101514.25
2022-10-03T23:44:30.819Z,101516.03
2022-10-03T23:47:02.437Z,101513.44
2022-10-03T23:49:30.727Z,101522.16
2022-10-03T23:51:59.983Z,101521.28
2022-10-03T23:54:29.200Z,101522.19
2022-10-03T23:57:08.159Z,101520.44
2022-10-03T23:59:39.729Z,101523.91
